Time;durP1;ratioP1;P1;durP2;ratioP2;P2;SDS_P1;SDS_P2;PMS_P1;PMS_P2;Temp;Humidity;BMP_temperature;BMP_pressure;BME280_temperature;BME280_humidity;BME280_pressure;Samples;Min_cycle;Max_cycle;Signal;HPM_P1;HPM_P2
2021/05/20 12:04:32;;;;;;;0.82;0.55;;;;;;;17.34;43.13;99439.59;5102413;27;20344;-83
2021/05/20 12:10:09;;;;;;;3.97;0.55;;;;;;;16.61;44.88;99457.31;5103703;28;20414;-84
2021/05/20 12:12:36;;;;;;;0.88;0.60;;;;;;;16.49;45.87;99461.78;5110874;28;20396;-86
2021/05/20 12:15:25;;;;;;;1.25;0.60;;;;;;;16.52;45.21;99464.09;5110931;28;20077;-85
2021/05/20 12:17:54;;;;;;;2.40;0.52;;;;;;;16.62;45.21;99454.34;5111246;28;20048;-85
2021/05/20 12:20:26;;;;;;;1.42;0.90;;;;;;;16.88;45.68;99440.75;5115561;28;20165;-86
2021/05/20 12:23:06;;;;;;;2.97;0.45;;;;;;;17.32;42.12;99430.75;5110731;28;20048;-86
2021/05/20 12:25:32;;;;;;;;;;;;;;;17.33;42.72;99443.44;5112063;28;20638;-86
2021/05/20 12:28:01;;;;;;;1.05;0.70;;;;;;;17.00;43.14;99414.28;5111041;28;19920;-87
2021/05/20 12:30:36;;;;;;;2.85;0.60;;;;;;;17.12;43.44;99422.66;5111256;28;20065;-87
2021/05/20 12:33:11;;;;;;;3.22;0.70;;;;;;;17.82;42.52;99435.41;5111235;28;20407;-86
2021/05/20 12:35:42;;;;;;;0.82;0.50;;;;;;;18.70;41.09;99428.75;5110907;28;20056;-86
2021/05/20 12:38:09;;;;;;;0.60;0.60;;;;;;;19.16;41.61;99412.66;5109063;28;20055;-86
2021/05/20 12:40:39;;;;;;;2.30;0.60;;;;;;;19.17;37.77;99424.53;5099972;28;20048;-85
2021/05/20 12:43:15;;;;;;;2.55;0.40;;;;;;;17.58;40.59;99421.44;5110981;28;20528;-86
2021/05/20 12:45:48;;;;;;;2.33;0.43;;;;;;;17.34;40.10;99436.84;5111081;28;20055;-85
2021/05/20 12:48:29;;;;;;;1.15;0.90;;;;;;;17.44;40.41;99430.88;5110847;28;20127;-84
2021/05/20 12:51:23;;;;;;;0.38;0.38;;;;;;;17.83;40.84;99424.19;5110573;28;20492;-85
2021/05/20 12:53:53;;;;;;;0.57;0.30;;;;;;;17.71;38.81;99428.75;5123259;22;20051;-86
2021/05/20 12:56:50;;;;;;;0.38;0.38;;;;;;;17.59;38.95;99425.03;5094160;28;20040;-85
2021/05/20 12:59:37;;;;;;;0.60;0.60;;;;;;;17.82;37.17;99421.66;5062464;28;20050;-85
2021/05/20 13:02:07;;;;;;;1.85;0.50;;;;;;;18.01;38.35;99414.31;5091271;28;20138;-86
2021/05/20 13:04:34;;;;;;;;;;;;;;;18.30;40.48;99425.66;5089224;28;20054;-86
2021/05/20 13:07:02;;;;;;;0.50;0.50;;;;;;;17.99;40.60;99405.44;5084772;28;19927;-86
2021/05/20 13:09:30;;;;;;;2.67;0.60;;;;;;;17.65;41.51;99429.66;5083673;28;20047;-86
2021/05/20 13:12:04;;;;;;;3.17;0.68;;;;;;;17.10;42.58;99420.13;5092113;28;20488;-85
2021/05/20 13:14:34;;;;;;;2.35;0.50;;;;;;;16.87;42.79;99420.66;5075957;28;20052;-86
2021/05/20 13:17:18;;;;;;;0.88;0.60;;;;;;;16.88;42.97;99418.78;5093046;28;20067;-86
2021/05/20 13:20:09;;;;;;;0.82;0.82;;;;;;;16.78;42.71;99413.72;5064915;28;20048;-86
2021/05/20 13:22:42;;;;;;;2.67;0.50;;;;;;;16.71;43.81;99423.91;5078468;28;20114;-86
2021/05/20 13:25:10;;;;;;;1.80;0.60;;;;;;;16.87;44.20;99417.94;5087878;28;20130;-86
2021/05/20 13:27:38;;;;;;;0.65;0.40;;;;;;;16.69;44.07;99426.84;5090991;28;20484;-86
2021/05/20 13:30:10;;;;;;;0.65;0.35;;;;;;;16.84;44.90;99420.25;5092550;28;20062;-86
2021/05/20 13:32:40;;;;;;;0.30;0.30;;;;;;;16.35;44.43;99426.16;5091695;28;20120;-85
2021/05/20 13:35:08;;;;;;;1.00;0.60;;;;;;;16.36;46.52;99410.53;5091709;28;20135;-81
2021/05/20 13:37:35;;;;;;;1.23;0.60;;;;;;;16.40;49.97;99426.34;5094362;28;20048;-81
2021/05/20 13:40:05;;;;;;;0.88;0.75;;;;;;;16.02;51.07;99424.34;5084857;28;20045;-81
2021/05/20 13:42:33;;;;;;;0.70;0.70;;;;;;;15.79;51.24;99413.84;5080668;28;20051;-81
2021/05/20 13:44:59;;;;;;;3.40;0.60;;;;;;;16.10;49.94;99423.28;5091905;28;20480;-82
2021/05/20 13:47:33;;;;;;;3.00;0.77;;;;;;;16.82;50.94;99412.22;5081709;28;20076;-81
2021/05/20 13:50:00;;;;;;;0.50;0.50;;;;;;;17.40;45.72;99410.38;5078934;28;20049;-81
2021/05/20 13:52:28;;;;;;;0.70;0.45;;;;;;;18.09;40.50;99400.25;5074538;28;20049;-82
2021/05/20 13:54:54;;;;;;;4.65;0.60;;;;;;;18.54;40.01;99397.19;5082025;28;20538;-81
2021/05/20 13:57:28;;;;;;;1.80;0.70;;;;;;;18.90;38.42;99381.69;5076658;28;20048;-82
2021/05/20 14:00:45;;;;;;;0.77;0.50;;;;;;;18.91;39.19;99382.53;5078838;28;20087;-81
2021/05/20 14:03:17;;;;;;;3.00;0.60;;;;;;;19.11;40.42;99371.22;5074412;28;20044;-81
2021/05/20 14:05:52;;;;;;;1.23;0.47;;;;;;;19.07;41.26;99373.59;5077212;28;20589;-81
2021/05/20 14:08:18;;;;;;;2.05;1.10;;;;;;;18.32;41.34;99388.56;5079269;28;20048;-81
2021/05/20 14:10:44;;;;;;;2.97;0.70;;;;;;;17.78;41.55;99368.16;5094884;28;20044;-81
2021/05/20 14:13:11;;;;;;;0.57;0.50;;;;;;;18.03;42.97;99373.66;5091191;28;20047;-80
2021/05/20 14:15:38;;;;;;;0.47;0.38;;;;;;;18.06;41.08;99369.63;5089103;28;20070;-80
2021/05/20 14:18:05;;;;;;;1.55;0.38;;;;;;;18.05;43.26;99355.03;5093350;28;20052;-80
2021/05/20 14:21:06;;;;;;;2.63;0.40;;;;;;;17.98;42.83;99357.84;5082192;28;20059;-81
2021/05/20 14:24:08;;;;;;;1.75;0.40;;;;;;;17.68;40.56;99357.72;5040074;28;20052;-81
2021/05/20 14:27:14;;;;;;;5.57;0.47;;;;;;;18.51;39.58;99344.50;5079782;28;20147;-81
2021/05/20 14:30:01;;;;;;;1.98;0.47;;;;;;;19.02;36.94;99336.81;5086756;28;20052;-82
2021/05/20 14:32:27;;;;;;;2.50;0.40;;;;;;;19.17;38.66;99347.38;5093819;28;20048;-81
2021/05/20 14:34:54;;;;;;;1.45;0.32;;;;;;;19.20;37.15;99358.75;5091766;28;20059;-82
2021/05/20 14:37:49;;;;;;;0.95;0.55;;;;;;;19.12;37.75;99355.50;5082635;28;20553;-81
2021/05/20 14:41:01;;;;;;;0.68;0.43;;;;;;;19.40;35.91;99346.56;5080978;28;20048;-81
2021/05/20 14:43:28;;;;;;;0.32;0.32;;;;;;;19.37;37.86;99358.06;5075712;28;20076;-81
2021/05/20 14:45:55;;;;;;;0.80;0.40;;;;;;;19.86;36.21;99344.91;5088053;28;20101;-81
2021/05/20 14:48:24;;;;;;;0.57;0.43;;;;;;;19.66;36.22;99338.91;5088571;28;20044;-83
2021/05/20 14:50:57;;;;;;;2.42;0.47;;;;;;;19.59;36.56;99341.78;5075905;28;20056;-82
2021/05/20 14:53:26;;;;;;;0.45;0.45;;;;;;;19.11;37.24;99340.91;5084242;28;20056;-82
2021/05/20 14:56:01;;;;;;;0.38;0.30;;;;;;;18.81;38.87;99333.47;5073507;28;20044;-81
2021/05/20 15:06:55;;;;;;;0.47;0.43;;;;;;;17.73;41.72;99359.78;5066780;28;20048;-81
2021/05/20 15:09:30;;;;;;;0.20;0.20;;;;;;;17.58;40.92;99340.88;5088749;28;20048;-81
2021/05/20 15:12:01;;;;;;;0.70;0.38;;;;;;;17.53;42.63;99360.81;5090706;28;20125;-82
2021/05/20 15:14:32;;;;;;;1.05;0.52;;;;;;;17.27;41.48;99345.41;5081902;28;20048;-82
2021/05/20 15:17:04;;;;;;;0.63;0.40;;;;;;;17.39;41.45;99337.25;5091014;28;20395;-82
2021/05/20 15:19:38;;;;;;;0.85;0.45;;;;;;;17.42;42.66;99342.28;5084785;28;20051;-81
2021/05/20 15:22:05;;;;;;;0.50;0.50;;;;;;;17.04;41.65;99313.03;5079944;28;20098;-81
2021/05/20 15:24:31;;;;;;;2.72;0.45;;;;;;;17.12;42.28;99338.34;5087562;28;20055;-82
2021/05/20 15:27:08;;;;;;;0.80;0.40;;;;;;;17.05;43.00;99345.78;5083607;28;20102;-82
2021/05/20 15:29:35;;;;;;;2.90;0.77;;;;;;;17.01;44.66;99328.06;5084750;28;20495;-82
2021/05/20 15:34:47;;;;;;;0.47;0.47;;;;;;;16.87;43.74;99316.34;5072245;28;20059;-82
2021/05/20 15:37:31;;;;;;;0.47;0.47;;;;;;;17.32;43.93;99310.69;5090049;28;20143;-82
2021/05/20 15:40:07;;;;;;;0.65;0.40;;;;;;;17.71;43.44;99305.03;5090220;28;20127;-82
2021/05/20 15:42:40;;;;;;;2.33;0.50;;;;;;;17.84;42.00;99317.78;5084874;28;20174;-82
2021/05/20 15:45:08;;;;;;;4.10;0.55;;;;;;;17.92;41.15;99311.19;5071206;28;20052;-81
2021/05/20 15:47:40;;;;;;;0.55;0.35;;;;;;;17.93;41.55;99316.44;5075312;28;20083;-81
2021/05/20 15:50:09;;;;;;;2.45;0.50;;;;;;;17.81;41.28;99307.22;5081967;28;20067;-82
2021/05/20 15:52:44;;;;;;;2.17;0.50;;;;;;;17.58;42.39;99313.41;5075758;28;20076;-81
2021/05/20 15:55:29;;;;;;;0.40;0.40;;;;;;;17.79;41.91;99312.94;5087555;28;20059;-81
2021/05/20 15:58:05;;;;;;;2.75;0.60;;;;;;;17.87;42.12;99303.59;5076567;28;20059;-82
2021/05/20 16:00:32;;;;;;;3.25;0.80;;;;;;;18.01;41.91;99307.88;5085136;28;20047;-82
2021/05/20 16:03:04;;;;;;;1.25;0.50;;;;;;;17.98;40.60;99304.75;5079708;28;20407;-81
2021/05/20 16:05:56;;;;;;;2.28;0.65;;;;;;;17.63;41.00;99284.16;5086816;28;20447;-82
2021/05/20 16:08:27;;;;;;;1.90;0.70;;;;;;;17.97;43.29;99306.66;5083550;28;20051;-82
2021/05/20 16:11:23;;;;;;;;;;;;;;;;;;;;;
2021/05/20 16:14:18;;;;;;;0.70;0.70;;;;;;;17.74;41.96;99284.47;5079976;28;20036;-82
2021/05/20 16:16:45;;;;;;;1.83;1.08;;;;;;;17.61;41.22;99277.22;5091833;28;20054;-82
2021/05/20 16:19:25;;;;;;;1.30;0.63;;;;;;;17.68;41.08;99289.81;5090062;28;20479;-82
2021/05/20 16:21:51;;;;;;;0.77;0.47;;;;;;;17.48;40.49;99275.47;5071939;28;20076;-82
2021/05/20 16:24:36;;;;;;;2.50;0.45;;;;;;;17.39;41.87;99271.31;5084108;28;20044;-81
2021/05/20 16:35:42;;;;;;;0.93;0.50;;;;;;;17.49;41.26;99249.63;5088419;28;20082;-81
2021/05/20 16:38:09;;;;;;;0.52;0.43;;;;;;;17.44;41.66;99247.56;5074632;28;20045;-82
2021/05/20 16:40:52;;;;;;;1.30;0.70;;;;;;;17.46;40.69;99236.34;5074605;28;20106;-82
2021/05/20 16:43:40;;;;;;;5.32;0.73;;;;;;;17.54;41.65;99240.72;5081457;28;20053;-81
2021/05/20 16:49:36;;;;;;;;;;;;;;;17.45;43.00;99260.25;4962155;28;20890;-81
2021/05/20 16:52:35;;;;;;;2.67;1.35;;;;;;;17.21;43.61;99245.50;4989310;28;19929;-81
2021/05/20 16:55:27;;;;;;;4.40;1.10;;;;;;;17.15;41.99;99230.75;5095104;28;20458;-81
2021/05/20 17:01:28;;;;;;;0.73;0.55;;;;;;;16.89;41.94;99242.84;5032987;28;20544;-81
2021/05/20 17:04:46;;;;;;;0.73;0.63;;;;;;;16.96;42.47;99262.81;5089186;28;20044;-82
2021/05/20 17:07:19;;;;;;;1.35;0.70;;;;;;;16.86;42.81;99235.03;5033471;28;20052;-81
2021/05/20 17:09:46;;;;;;;3.78;0.70;;;;;;;16.96;43.21;99253.75;5031310;28;20049;-81
2021/05/20 17:12:26;;;;;;;1.95;0.60;;;;;;;16.98;42.80;99246.13;5063301;28;20044;-81
2021/05/20 17:14:52;;;;;;;2.47;0.70;;;;;;;16.75;43.01;99241.22;5093726;28;20044;-80
2021/05/20 17:17:18;;;;;;;0.40;0.40;;;;;;;16.73;43.38;99257.91;5096103;28;20105;-81
2021/05/20 17:20:13;;;;;;;0.90;0.50;;;;;;;16.34;43.15;99250.81;5086718;28;20057;-81
2021/05/20 17:22:41;;;;;;;2.03;0.90;;;;;;;16.34;44.59;99257.13;5075910;28;20056;-81
2021/05/20 17:28:23;;;;;;;2.08;0.90;;;;;;;16.46;43.26;99251.78;5067347;28;20058;-81
2021/05/20 17:30:50;;;;;;;3.25;1.20;;;;;;;16.51;43.90;99242.88;5086432;28;20071;-81
2021/05/20 17:33:17;;;;;;;0.70;0.60;;;;;;;16.50;43.51;99230.22;5094245;28;20040;-81
2021/05/20 17:35:44;;;;;;;1.00;0.52;;;;;;;16.28;44.35;99238.81;5089243;28;20454;-80
2021/05/20 17:38:11;;;;;;;1.38;0.80;;;;;;;16.22;44.13;99239.69;5076420;28;20123;-81
2021/05/20 17:40:37;;;;;;;0.63;0.60;;;;;;;16.15;45.04;99223.25;5076556;28;20048;-80
2021/05/20 17:43:04;;;;;;;0.50;0.50;;;;;;;15.97;45.33;99234.94;5094460;28;20125;-79
2021/05/20 17:45:30;;;;;;;2.72;1.05;;;;;;;15.89;45.66;99241.53;5084301;28;20060;-79
2021/05/20 17:47:58;;;;;;;4.03;2.20;;;;;;;16.01;47.58;99246.34;5095684;28;20408;-79
2021/05/20 17:50:25;;;;;;;2.25;1.00;;;;;;;15.79;46.65;99254.03;5107522;28;20595;-79
2021/05/20 17:53:05;;;;;;;2.03;0.88;;;;;;;15.69;47.09;99270.91;5076681;28;20051;-79
2021/05/20 17:55:32;;;;;;;2.72;1.00;;;;;;;15.78;46.79;99264.16;5089742;28;20131;-79
2021/05/20 17:58:01;;;;;;;4.20;1.58;;;;;;;15.76;47.43;99238.81;5094318;28;20059;-79
2021/05/20 18:00:27;;;;;;;4.95;2.17;;;;;;;15.69;47.26;99227.06;5062766;28;20044;-79
2021/05/20 18:02:55;;;;;;;2.97;1.60;;;;;;;15.50;48.01;99207.72;5079842;28;20089;-79
2021/05/20 18:05:21;;;;;;;2.38;1.80;;;;;;;15.53;47.31;99220.97;5089328;28;20090;-79
2021/05/20 18:07:47;;;;;;;2.53;1.58;;;;;;;15.24;47.12;99227.81;5081246;28;20052;-80
2021/05/20 18:10:16;;;;;;;1.17;0.85;;;;;;;15.32;47.22;99235.78;5085975;28;20109;-79
2021/05/20 18:12:47;;;;;;;3.13;1.40;;;;;;;15.29;48.84;99222.50;5088272;28;20093;-79
2021/05/20 18:15:22;;;;;;;1.15;0.90;;;;;;;15.27;46.95;99221.06;5094438;28;20087;-79
2021/05/20 18:17:55;;;;;;;1.55;0.70;;;;;;;15.35;47.81;99223.56;5081149;28;20052;-79
2021/05/20 18:20:29;;;;;;;0.90;0.70;;;;;;;15.16;48.62;99233.50;5081637;28;20036;-79
2021/05/20 18:22:55;;;;;;;1.00;0.77;;;;;;;15.24;48.42;99229.72;5089637;28;20044;-79
2021/05/20 18:25:21;;;;;;;1.85;0.98;;;;;;;15.15;48.56;99227.19;5094034;28;20048;-79
2021/05/20 18:27:49;;;;;;;3.55;1.23;;;;;;;15.10;51.56;99226.13;5081698;28;20048;-79
2021/05/20 18:30:18;;;;;;;5.70;1.27;;;;;;;15.15;51.91;99235.41;5085055;28;20661;-80
2021/05/20 18:32:44;;;;;;;1.20;1.10;;;;;;;14.96;53.39;99234.34;5083266;28;20399;-79
2021/05/20 18:35:11;;;;;;;3.08;1.05;;;;;;;14.76;53.61;99217.13;5093462;28;20048;-79
2021/05/20 18:37:38;;;;;;;2.45;1.15;;;;;;;14.57;57.13;99221.50;5080969;28;20055;-79
2021/05/20 18:40:07;;;;;;;1.50;1.00;;;;;;;14.43;56.48;99213.28;5076441;28;20117;-80
2021/05/20 18:42:35;;;;;;;2.42;1.45;;;;;;;14.34;55.01;99220.00;5093406;28;20075;-79
2021/05/20 18:45:06;;;;;;;2.35;1.48;;;;;;;14.26;56.80;99231.16;5093630;28;20128;-79
2021/05/20 18:47:39;;;;;;;2.95;1.58;;;;;;;14.10;56.63;99210.50;5076715;28;20083;-79
2021/05/20 18:50:06;;;;;;;2.35;1.27;;;;;;;14.12;55.93;99216.59;5079122;28;20054;-79
2021/05/20 18:52:33;;;;;;;1.45;1.20;;;;;;;13.98;58.04;99193.84;5083863;28;20044;-79
2021/05/20 18:55:00;;;;;;;2.15;1.10;;;;;;;13.87;59.30;99195.31;5083755;28;20055;-79
2021/05/20 18:57:28;;;;;;;1.88;1.08;;;;;;;13.85;60.00;99191.94;5092737;28;20069;-79
2021/05/20 18:59:54;;;;;;;4.22;1.40;;;;;;;13.72;59.97;99186.44;5085718;28;20091;-79
2021/05/20 19:06:46;;;;;;;1.00;0.90;;;;;;;13.39;60.36;99190.69;4991702;28;20058;-79
2021/05/20 19:12:53;;;;;;;4.57;2.28;;;;;;;13.20;62.04;99170.44;5017303;28;20046;-80
2021/05/20 19:15:24;;;;;;;2.45;0.90;;;;;;;13.13;61.73;99171.41;5060630;28;20411;-80
2021/05/20 19:17:51;;;;;;;0.63;0.63;;;;;;;12.91;62.56;99172.31;5088581;28;20051;-80
2021/05/20 19:20:22;;;;;;;2.13;0.82;;;;;;;13.01;61.79;99169.25;5093207;28;20048;-79
2021/05/20 19:22:49;;;;;;;0.85;0.75;;;;;;;12.87;61.44;99151.97;5085948;28;20084;-80
2021/05/20 19:25:16;;;;;;;0.85;0.80;;;;;;;12.92;61.58;99154.09;5092222;28;20044;-79
2021/05/20 19:27:43;;;;;;;0.90;0.90;;;;;;;12.87;62.79;99167.47;5077422;28;20048;-79
2021/05/20 19:30:21;;;;;;;1.42;0.98;;;;;;;12.82;62.48;99165.34;5073781;28;20393;-79
2021/05/20 19:32:47;;;;;;;0.75;0.75;;;;;;;12.77;62.45;99172.44;5084903;28;20040;-80
2021/05/20 19:35:16;;;;;;;3.05;2.03;;;;;;;12.69;63.84;99182.47;5092819;28;20060;-79
2021/05/20 19:37:47;;;;;;;0.90;0.80;;;;;;;12.54;64.88;99179.84;5086727;28;20070;-79
2021/05/20 19:40:30;;;;;;;1.50;0.80;;;;;;;12.57;64.31;99182.16;5093395;28;20147;-79
2021/05/20 19:43:01;;;;;;;2.55;0.80;;;;;;;12.41;65.89;99179.72;5087979;28;20048;-80
2021/05/20 19:46:04;;;;;;;0.95;0.80;;;;;;;12.23;65.17;99188.38;5077701;28;20113;-80
2021/05/20 19:52:31;;;;;;;4.90;0.90;;;;;;;11.90;66.88;99153.44;5041129;28;20521;-79
2021/05/20 19:55:15;;;;;;;3.08;1.10;;;;;;;11.69;67.16;99154.25;5082564;28;20048;-80
2021/05/20 20:00:28;;;;;;;1.00;0.88;;;;;;;12.00;66.44;99164.06;5082317;28;20090;-80
2021/05/20 20:02:55;;;;;;;1.00;0.90;;;;;;;11.93;67.30;99150.34;5072505;28;20052;-80
2021/05/20 20:05:34;;;;;;;4.30;1.00;;;;;;;11.91;67.51;99149.66;5072553;28;20408;-80
2021/05/20 20:08:08;;;;;;;0.80;0.80;;;;;;;11.54;67.89;99127.06;5084554;28;20139;-79
2021/05/20 20:10:48;;;;;;;1.48;0.90;;;;;;;11.54;68.92;99143.41;5092368;28;20044;-80
2021/05/20 20:13:18;;;;;;;1.00;0.80;;;;;;;11.45;69.04;99130.94;5085729;28;20048;-79
2021/05/20 20:15:45;;;;;;;0.95;0.90;;;;;;;11.24;69.63;99123.56;5097012;28;20052;-80
2021/05/20 20:18:13;;;;;;;1.42;0.93;;;;;;;11.45;69.18;99131.78;5076194;28;20144;-79
2021/05/20 20:20:44;;;;;;;0.80;0.70;;;;;;;11.53;68.14;99128.09;5076399;28;20052;-80
2021/05/20 20:23:12;;;;;;;2.40;1.52;;;;;;;11.46;68.69;99116.31;5085813;28;20059;-80
2021/05/20 20:25:42;;;;;;;1.25;1.10;;;;;;;11.55;68.59;99119.72;5088253;28;20404;-79
2021/05/20 20:28:08;;;;;;;2.80;1.20;;;;;;;11.50;68.57;99113.00;5090608;28;20063;-79
2021/05/20 20:30:35;;;;;;;1.92;1.40;;;;;;;11.49;68.59;99100.41;5096480;28;20048;-79
2021/05/20 20:33:09;;;;;;;3.38;0.90;;;;;;;11.50;68.42;99098.53;5095996;28;20044;-79
2021/05/20 20:41:32;;;;;;;2.30;0.90;;;;;;;11.70;66.68;99109.66;5091226;28;20110;-79
2021/05/20 20:44:00;;;;;;;2.20;0.98;;;;;;;11.54;69.08;99099.84;5077489;28;20045;-79
2021/05/20 20:46:29;;;;;;;1.75;1.20;;;;;;;11.55;68.75;99089.78;5088924;28;20044;-80
2021/05/20 20:48:57;;;;;;;1.97;1.40;;;;;;;11.49;67.78;99084.06;5096672;28;20461;-80
2021/05/20 20:51:29;;;;;;;1.92;1.17;;;;;;;11.35;69.37;99068.66;5091379;28;20142;-80
2021/05/20 20:54:19;;;;;;;1.77;1.30;;;;;;;11.25;68.48;99070.84;5084608;28;20040;-79
2021/05/20 20:57:02;;;;;;;1.95;1.50;;;;;;;11.30;67.90;99074.66;5084550;28;20048;-80
2021/05/20 20:59:30;;;;;;;8.18;3.50;;;;;;;11.50;67.62;99082.19;5090271;28;20642;-79
2021/05/20 21:02:17;;;;;;;4.40;2.45;;;;;;;11.31;67.15;99068.19;5088245;28;20040;-79
2021/05/20 21:11:59;;;;;;;2.08;1.20;;;;;;;11.20;65.85;99055.09;5042218;28;20107;-80
2021/05/20 21:14:55;;;;;;;1.83;0.88;;;;;;;11.13;64.92;99059.59;5083496;28;20036;-80
2021/05/20 21:17:24;;;;;;;2.00;1.20;;;;;;;11.18;66.85;99069.91;5083979;28;20044;-80
2021/05/20 21:20:10;;;;;;;1.48;1.00;;;;;;;11.11;66.90;99058.94;5087460;28;20480;-80
2021/05/20 21:23:10;;;;;;;1.23;1.13;;;;;;;11.18;65.88;99068.03;5076093;28;20055;-80
2021/05/20 21:26:08;;;;;;;3.97;2.58;;;;;;;11.10;65.51;99047.22;5100750;28;20053;-80
2021/05/20 21:31:56;;;;;;;1.35;1.02;;;;;;;11.16;66.22;99053.78;5083762;28;20519;-79
2021/05/20 21:34:23;;;;;;;1.98;1.42;;;;;;;11.02;67.21;99036.47;5085234;28;20369;-79
2021/05/20 21:36:49;;;;;;;1.60;1.20;;;;;;;11.05;66.86;99054.25;5084149;28;20126;-79
2021/05/20 21:39:15;;;;;;;1.80;1.10;;;;;;;11.05;65.65;99044.25;5090683;28;20037;-80
2021/05/20 21:41:43;;;;;;;3.42;1.15;;;;;;;11.06;65.13;99031.47;5090616;28;20448;-80
2021/05/20 21:44:38;;;;;;;;;;;;;;;;;;;;;
2021/05/20 21:48:05;;;;;;;2.20;1.45;;;;;;;11.01;65.77;99028.50;5080635;28;20391;-80
2021/05/20 21:50:33;;;;;;;2.15;1.73;;;;;;;11.08;65.16;99030.25;5082572;28;20139;-80
2021/05/20 21:52:59;;;;;;;1.58;1.30;;;;;;;11.02;65.68;99024.72;5084438;28;20119;-79
2021/05/20 21:55:25;;;;;;;2.20;1.20;;;;;;;11.15;65.35;99044.78;5076468;28;20052;-80
2021/05/20 21:57:52;;;;;;;2.83;1.38;;;;;;;10.94;65.58;99026.53;5075495;28;20105;-80
2021/05/20 22:00:21;;;;;;;1.95;1.20;;;;;;;10.96;66.90;99038.06;5075306;28;20056;-80
2021/05/20 22:02:48;;;;;;;1.60;1.30;;;;;;;10.86;66.12;99018.47;5075001;28;20074;-80
2021/05/20 22:05:15;;;;;;;1.88;1.35;;;;;;;10.79;66.73;99025.69;5077978;28;20068;-80
2021/05/20 22:07:42;;;;;;;1.58;1.27;;;;;;;10.73;67.55;99013.69;5088354;28;20054;-80
2021/05/20 22:10:14;;;;;;;7.88;1.77;;;;;;;10.74;67.57;99009.94;5087358;28;20044;-80
2021/05/20 22:12:53;;;;;;;4.88;2.20;;;;;;;10.76;68.04;99028.78;5094962;28;20044;-79
2021/05/20 22:15:19;;;;;;;2.28;1.60;;;;;;;10.77;67.67;99033.22;5089668;28;20709;-80
2021/05/20 22:17:45;;;;;;;1.63;1.52;;;;;;;10.78;67.33;99037.63;5087086;28;20044;-80
2021/05/20 22:20:13;;;;;;;2.10;1.73;;;;;;;10.81;67.10;99023.66;5078839;28;20048;-79
2021/05/20 22:22:39;;;;;;;2.85;1.50;;;;;;;10.86;67.34;99023.06;5089591;28;20123;-80
2021/05/20 22:25:06;;;;;;;1.95;1.35;;;;;;;10.78;67.40;99018.59;5088735;28;20039;-80
2021/05/20 22:27:40;;;;;;;1.92;1.30;;;;;;;10.76;67.77;99024.22;5094077;28;20040;-80
2021/05/20 22:30:13;;;;;;;1.88;1.42;;;;;;;10.79;67.58;99012.09;5086971;28;20052;-79
2021/05/20 22:32:41;;;;;;;2.00;1.25;;;;;;;10.70;68.08;99003.19;5084649;28;20048;-79
2021/05/20 22:35:10;;;;;;;3.58;1.40;;;;;;;10.72;67.93;98998.44;5094640;28;20408;-79
2021/05/20 22:37:37;;;;;;;2.22;1.30;;;;;;;10.77;68.32;99006.84;5086917;28;20052;-80
2021/05/20 22:40:05;;;;;;;1.40;1.30;;;;;;;10.68;68.19;98997.13;5094429;28;20062;-80
2021/05/20 22:42:32;;;;;;;1.10;1.00;;;;;;;10.64;68.91;99003.97;5086412;28;20110;-80
2021/05/20 22:44:58;;;;;;;2.72;1.65;;;;;;;10.72;68.50;99008.44;5081110;28;20055;-80
2021/05/20 22:47:24;;;;;;;2.15;1.50;;;;;;;10.64;67.95;98976.78;5093617;28;20504;-80
2021/05/20 22:49:51;;;;;;;1.70;1.42;;;;;;;10.67;68.13;98989.16;5082840;28;20045;-80
2021/05/20 22:52:18;;;;;;;2.83;1.45;;;;;;;10.61;68.56;98985.31;5078378;28;20036;-80
2021/05/20 22:54:45;;;;;;;1.55;1.42;;;;;;;10.51;68.42;98966.59;5076895;28;20052;-80
2021/05/20 22:57:12;;;;;;;2.55;1.58;;;;;;;10.68;68.35;98978.09;5084725;28;20537;-80
2021/05/20 22:59:38;;;;;;;3.08;1.30;;;;;;;10.55;68.44;98973.34;5089270;28;20052;-81
2021/05/20 23:02:04;;;;;;;1.73;1.30;;;;;;;10.53;68.69;98978.09;5074940;28;20055;-80
2021/05/20 23:04:30;;;;;;;2.22;1.48;;;;;;;10.45;69.46;98964.63;5087343;28;20044;-80
2021/05/20 23:06:57;;;;;;;1.67;1.30;;;;;;;10.47;69.25;98959.84;5076465;28;20060;-80
2021/05/20 23:09:23;;;;;;;1.63;1.30;;;;;;;10.49;68.74;98955.06;5093134;28;20491;-81
2021/05/20 23:11:50;;;;;;;2.45;1.73;;;;;;;10.53;69.30;98974.56;5076526;28;20048;-80
2021/05/20 23:14:16;;;;;;;2.53;1.50;;;;;;;10.47;70.01;98970.72;5081634;28;20044;-80
2021/05/20 23:16:43;;;;;;;2.78;1.58;;;;;;;10.36;69.97;98944.88;5078321;28;20102;-79
2021/05/20 23:19:09;;;;;;;2.50;1.52;;;;;;;10.41;69.94;98947.84;5073687;28;20049;-79
2021/05/20 23:21:36;;;;;;;1.60;1.50;;;;;;;10.40;69.72;98939.88;5084584;28;20048;-80
2021/05/20 23:24:03;;;;;;;4.55;1.58;;;;;;;10.37;69.46;98934.84;5075644;28;20052;-81
2021/05/20 23:26:30;;;;;;;2.42;1.50;;;;;;;10.35;69.40;98928.75;5089296;28;20052;-81
2021/05/20 23:28:57;;;;;;;3.92;1.60;;;;;;;10.41;69.70;98928.81;5082916;28;20058;-80
2021/05/20 23:31:23;;;;;;;2.28;1.20;;;;;;;10.33;69.81;98926.22;5077625;28;20110;-79
2021/05/20 23:33:49;;;;;;;1.77;1.30;;;;;;;10.31;69.85;98930.13;5074777;28;20048;-79
2021/05/20 23:36:16;;;;;;;1.80;1.45;;;;;;;10.40;69.60;98923.56;5086125;28;20040;-80
2021/05/20 23:38:42;;;;;;;1.90;1.60;;;;;;;10.36;69.83;98925.84;5091670;28;20071;-80
2021/05/20 23:41:09;;;;;;;1.85;1.50;;;;;;;10.31;69.69;98909.22;5092963;28;20048;-80
2021/05/20 23:43:37;;;;;;;4.32;1.55;;;;;;;10.34;69.79;98903.47;5083108;28;20044;-80
2021/05/20 23:46:05;;;;;;;1.88;1.25;;;;;;;10.32;69.99;98910.91;5072648;28;20061;-80
2021/05/20 23:48:32;;;;;;;2.28;1.42;;;;;;;10.25;70.08;98901.81;5079169;28;20457;-80
2021/05/20 23:50:58;;;;;;;4.35;1.50;;;;;;;10.22;70.14;98891.34;5072461;28;20098;-80
2021/05/20 23:53:24;;;;;;;2.58;1.30;;;;;;;10.13;69.78;98877.00;5078772;28;20044;-80
2021/05/20 23:55:50;;;;;;;3.13;1.02;;;;;;;10.21;70.06;98890.50;5091699;28;20113;-80
2021/05/20 23:58:17;;;;;;;1.67;1.40;;;;;;;10.17;70.08;98883.75;5073808;28;20045;-80
